createdAt,value
2018-04-08T00:01:56.478Z,6.67
2018-04-08T00:04:26.119Z,5.60
2018-04-08T00:06:55.089Z,4.97
2018-04-08T00:09:24.582Z,5.57
2018-04-08T00:11:53.078Z,5.10
2018-04-08T00:14:22.056Z,6.77
2018-04-08T00:16:50.256Z,5.50
2018-04-08T00:19:18.705Z,5.70
2018-04-08T00:21:47.690Z,6.10
2018-04-08T00:24:15.964Z,5.57
2018-04-08T00:26:44.142Z,5.53
2018-04-08T00:29:12.808Z,5.40
2018-04-08T00:31:40.979Z,4.40
2018-04-08T00:34:09.822Z,5.70
2018-04-08T00:36:38.903Z,6.00
2018-04-08T00:39:07.103Z,4.83
2018-04-08T00:41:35.295Z,6.80
2018-04-08T00:44:03.513Z,5.90
2018-04-08T00:46:31.725Z,6.13
2018-04-08T00:49:06.867Z,5.90
2018-04-08T00:51:35.837Z,5.70
2018-04-08T00:54:16.112Z,5.60
2018-04-08T00:56:44.602Z,6.17
2018-04-08T00:59:14.106Z,4.90
2018-04-08T01:01:43.197Z,6.43
2018-04-08T01:04:12.411Z,6.23
2018-04-08T01:06:40.776Z,6.03
2018-04-08T01:09:09.884Z,6.07
2018-04-08T01:11:38.113Z,5.70
2018-04-08T01:14:06.638Z,5.97
2018-04-08T01:16:35.218Z,6.73
2018-04-08T01:19:04.376Z,6.40
2018-04-08T01:21:33.073Z,6.80
2018-04-08T01:24:01.317Z,6.80
2018-04-08T01:26:29.522Z,5.97
2018-04-08T01:28:58.414Z,6.00
2018-04-08T01:31:27.566Z,6.30
2018-04-08T01:33:56.309Z,6.23
2018-04-08T01:36:25.003Z,7.30
2018-04-08T01:38:53.206Z,6.10
2018-04-08T01:41:21.855Z,6.27
2018-04-08T01:43:50.082Z,5.57
2018-04-08T01:46:18.297Z,6.20
2018-04-08T01:48:46.496Z,5.33
2018-04-08T01:51:15.069Z,6.17
2018-04-08T01:53:43.748Z,5.60
2018-04-08T01:56:13.396Z,5.40
2018-04-08T01:58:41.613Z,4.97
2018-04-08T02:01:09.818Z,5.93
2018-04-08T02:03:38.414Z,6.80
2018-04-08T02:06:06.589Z,4.63
2018-04-08T02:08:35.899Z,5.97
2018-04-08T02:11:05.059Z,5.80
2018-04-08T02:13:33.237Z,5.37
2018-04-08T02:16:01.613Z,5.90
2018-04-08T02:18:30.206Z,4.97
2018-04-08T02:20:58.406Z,4.87
2018-04-08T02:23:27.317Z,4.87
2018-04-08T02:25:55.677Z,5.50
2018-04-08T02:28:24.637Z,4.53
2018-04-08T02:30:53.386Z,6.40
2018-04-08T02:33:21.948Z,5.10
2018-04-08T02:35:51.313Z,5.13
2018-04-08T02:38:19.851Z,5.23
2018-04-08T02:40:48.188Z,5.07
2018-04-08T02:43:17.305Z,4.67
2018-04-08T02:45:45.724Z,5.00
2018-04-08T02:48:13.914Z,5.83
2018-04-08T02:50:42.218Z,6.17
2018-04-08T02:53:10.828Z,6.20
2018-04-08T02:55:39.799Z,6.27
2018-04-08T02:58:09.514Z,6.37
2018-04-08T03:00:37.815Z,6.47
2018-04-08T03:03:06.057Z,6.67
2018-04-08T03:05:34.656Z,6.33
2018-04-08T03:08:03.367Z,6.83
2018-04-08T03:10:32.223Z,6.40
2018-04-08T03:13:00.409Z,6.00
2018-04-08T03:15:29.005Z,6.50
2018-04-08T03:17:57.873Z,5.70
2018-04-08T03:20:26.087Z,5.83
2018-04-08T03:22:55.051Z,6.70
2018-04-08T03:25:24.885Z,5.87
2018-04-08T03:27:53.099Z,6.50
2018-04-08T03:30:21.649Z,5.00
2018-04-08T03:32:50.942Z,6.70
2018-04-08T03:35:20.353Z,5.90
2018-04-08T03:37:48.943Z,7.10
2018-04-08T03:40:18.306Z,6.20
2018-04-08T03:42:46.506Z,6.53
2018-04-08T03:45:15.447Z,5.70
2018-04-08T03:47:44.386Z,7.60
2018-04-08T03:50:13.494Z,6.23
2018-04-08T03:52:43.210Z,6.27
2018-04-08T03:55:12.187Z,7.00
2018-04-08T03:57:40.648Z,5.37
2018-04-08T04:00:08.875Z,6.60
2018-04-08T04:02:37.074Z,5.87
2018-04-08T04:05:06.310Z,6.00
2018-04-08T04:07:35.933Z,5.90
2018-04-08T04:10:04.706Z,6.10
2018-04-08T04:12:34.140Z,6.50
2018-04-08T04:15:02.371Z,6.50
2018-04-08T04:17:30.774Z,7.00
2018-04-08T04:20:10.791Z,6.20
2018-04-08T04:22:50.787Z,6.47
2018-04-08T04:25:30.706Z,6.27
2018-04-08T04:28:00.901Z,6.10
2018-04-08T04:30:29.769Z,5.97
2018-04-08T04:32:58.731Z,6.80
2018-04-08T04:35:28.967Z,5.80
2018-04-08T04:37:57.160Z,6.40
2018-04-08T04:40:25.366Z,5.90
2018-04-08T04:42:54.014Z,6.20
2018-04-08T04:45:22.994Z,6.47
2018-04-08T04:47:51.810Z,6.60
2018-04-08T04:50:20.143Z,6.00
2018-04-08T04:52:48.838Z,5.50
2018-04-08T04:55:17.038Z,6.27
2018-04-08T04:57:45.601Z,6.73
2018-04-08T05:00:13.822Z,6.83
2018-04-08T05:02:42.022Z,5.73
2018-04-08T05:05:11.701Z,4.93
2018-04-08T05:07:40.245Z,5.13
2018-04-08T05:10:08.730Z,6.00
2018-04-08T05:12:37.794Z,5.97
2018-04-08T05:15:05.997Z,6.03
2018-04-08T05:17:35.417Z,5.67
2018-04-08T05:20:05.164Z,6.83
2018-04-08T05:22:33.962Z,6.67
2018-04-08T05:25:02.161Z,6.13
2018-04-08T05:27:30.616Z,6.20
2018-04-08T05:29:59.031Z,6.10
2018-04-08T05:32:33.054Z,7.43
2018-04-08T05:35:01.601Z,8.23
2018-04-08T05:37:29.810Z,7.57
2018-04-08T05:39:58.036Z,9.03
2018-04-08T05:42:27.002Z,8.70
2018-04-08T05:44:55.988Z,9.03
2018-04-08T05:47:24.751Z,9.30
2018-04-08T05:49:52.954Z,9.17
2018-04-08T05:52:21.915Z,9.17
2018-04-08T05:54:50.111Z,10.10
2018-04-08T05:57:18.314Z,10.93
2018-04-08T05:59:47.311Z,8.17
2018-04-08T06:02:15.518Z,10.43
2018-04-08T06:04:44.291Z,10.40
2018-04-08T06:07:12.978Z,8.90
2018-04-08T06:09:41.939Z,11.40
2018-04-08T06:12:10.496Z,10.00
2018-04-08T06:14:38.697Z,9.00
2018-04-08T06:17:07.468Z,8.47
2018-04-08T06:19:36.270Z,9.97
2018-04-08T06:22:05.250Z,10.20
2018-04-08T06:24:33.457Z,9.53
2018-04-08T06:27:01.691Z,9.97
2018-04-08T06:29:30.802Z,9.90
2018-04-08T06:31:59.014Z,9.50
2018-04-08T06:34:31.483Z,10.70
2018-04-08T06:37:01.027Z,10.47
2018-04-08T06:39:29.242Z,10.57
2018-04-08T06:41:57.465Z,9.60
2018-04-08T06:44:26.333Z,10.37
2018-04-08T06:46:54.722Z,9.40
2018-04-08T06:49:23.273Z,10.20
2018-04-08T06:54:25.133Z,11.00
2018-04-08T06:56:53.346Z,11.43
2018-04-08T06:59:21.553Z,11.00
2018-04-08T07:01:54.306Z,11.37
2018-04-08T07:04:22.667Z,11.93
2018-04-08T07:06:52.477Z,11.30
2018-04-08T07:09:21.294Z,11.03
2018-04-08T07:11:49.519Z,10.00
2018-04-08T07:14:17.994Z,11.40
2018-04-08T07:16:46.533Z,10.80
2018-04-08T07:19:15.090Z,10.83
2018-04-08T07:21:44.070Z,10.73
2018-04-08T07:24:12.695Z,10.50
2018-04-08T07:26:41.072Z,10.07
2018-04-08T07:29:09.748Z,11.00
2018-04-08T07:31:38.415Z,10.50
2018-04-08T07:34:07.433Z,11.20
2018-04-08T07:36:36.101Z,10.00
2018-04-08T07:39:05.088Z,10.20
2018-04-08T07:41:35.479Z,10.77
2018-04-08T07:44:03.947Z,10.10
2018-04-08T07:46:32.133Z,9.20
2018-04-08T07:49:00.537Z,10.23
2018-04-08T07:51:28.713Z,9.93
2018-04-08T07:53:57.423Z,10.00
2018-04-08T07:56:25.645Z,10.10
2018-04-08T07:58:53.855Z,9.77
2018-04-08T08:01:22.777Z,11.03
2018-04-08T08:03:51.838Z,9.80
2018-04-08T08:06:20.039Z,9.50
2018-04-08T08:08:48.626Z,10.27
2018-04-08T08:11:17.618Z,10.13
2018-04-08T08:13:46.594Z,9.40
2018-04-08T08:16:14.882Z,9.93
2018-04-08T08:18:43.994Z,9.30
2018-04-08T08:21:12.979Z,9.23
2018-04-08T08:23:41.202Z,10.83
2018-04-08T08:26:09.872Z,9.53
2018-04-08T08:28:38.108Z,9.57
2018-04-08T08:31:06.791Z,10.30
2018-04-08T08:33:35.283Z,9.73
2018-04-08T08:36:03.984Z,9.33
2018-04-08T08:38:39.407Z,10.67
2018-04-08T08:41:07.778Z,8.40
2018-04-08T08:43:36.304Z,8.70
2018-04-08T08:46:06.346Z,8.13
2018-04-08T08:48:34.555Z,9.37
2018-04-08T08:51:02.779Z,10.20
2018-04-08T08:53:32.154Z,9.80
2018-04-08T08:56:00.371Z,9.10
2018-04-08T08:58:28.598Z,10.10
2018-04-08T09:00:56.818Z,8.93
2018-04-08T09:03:27.742Z,9.17
2018-04-08T09:05:55.960Z,8.90
2018-04-08T09:08:25.587Z,8.07
2018-04-08T09:10:53.762Z,8.50
2018-04-08T09:13:21.983Z,8.63
2018-04-08T09:15:50.319Z,7.60
2018-04-08T09:18:19.102Z,8.27
2018-04-08T09:34:10.118Z,7.53
2018-04-08T09:36:39.241Z,7.77
2018-04-08T09:39:08.260Z,7.43
2018-04-08T09:41:36.474Z,7.80
2018-04-08T09:44:04.686Z,7.80
2018-04-08T09:46:33.675Z,7.03
2018-04-08T09:49:02.407Z,7.80
2018-04-08T09:51:30.644Z,8.77
2018-04-08T09:53:59.416Z,7.43
2018-04-08T09:56:28.071Z,7.03
2018-04-08T09:58:57.059Z,8.10
2018-04-08T10:01:30.876Z,7.53
2018-04-08T10:03:59.570Z,7.30
2018-04-08T10:06:28.555Z,7.43
2018-04-08T10:08:57.061Z,7.10
2018-04-08T10:11:25.280Z,7.73
2018-04-08T10:13:53.495Z,7.20
2018-04-08T10:16:22.271Z,8.80
2018-04-08T10:18:50.562Z,7.40
2018-04-08T10:21:18.762Z,6.40
2018-04-08T10:23:46.976Z,5.97
2018-04-08T10:26:15.220Z,7.00
2018-04-08T10:28:44.441Z,7.30
2018-04-08T10:31:13.264Z,5.93
2018-04-08T10:33:41.880Z,7.77
2018-04-08T10:36:10.366Z,6.90
2018-04-08T10:38:38.574Z,6.27
2018-04-08T10:41:06.779Z,7.00
2018-04-08T10:43:34.998Z,6.57
2018-04-08T10:46:03.983Z,6.30
2018-04-08T10:48:32.195Z,6.20
2018-04-08T10:51:00.762Z,6.53
2018-04-08T10:53:30.290Z,6.43
2018-04-08T10:55:59.671Z,7.63
2018-04-08T10:58:28.647Z,7.77
2018-04-08T11:00:56.995Z,6.67
2018-04-08T11:03:29.519Z,7.87
2018-04-08T11:05:58.254Z,7.00
2018-04-08T11:08:27.126Z,6.67
2018-04-08T11:10:55.341Z,6.77
2018-04-08T11:13:23.547Z,6.53
2018-04-08T11:15:52.337Z,6.17
2018-04-08T11:18:21.640Z,7.50
2018-04-08T11:20:49.858Z,7.47
2018-04-08T11:23:18.681Z,7.30
2018-04-08T11:25:46.904Z,7.13
2018-04-08T11:28:15.113Z,6.60
2018-04-08T11:30:43.734Z,7.17
2018-04-08T11:33:12.358Z,7.07
2018-04-08T11:35:41.441Z,6.50
2018-04-08T11:38:09.656Z,6.40
2018-04-08T11:40:37.866Z,6.63
2018-04-08T11:43:06.084Z,6.77
2018-04-08T11:45:34.295Z,6.60
2018-04-08T11:48:02.524Z,11.00
2018-04-08T11:50:31.622Z,8.67
2018-04-08T11:53:00.241Z,6.23
2018-04-08T11:55:28.533Z,6.77
2018-04-08T11:57:56.711Z,6.47
2018-04-08T12:00:25.752Z,6.57
2018-04-08T12:02:53.947Z,6.80
2018-04-08T12:05:22.730Z,6.03
2018-04-08T12:07:56.621Z,7.00
2018-04-08T12:10:25.628Z,6.00
2018-04-08T12:12:53.834Z,5.70
2018-04-08T12:15:23.373Z,6.97
2018-04-08T12:17:56.562Z,7.37
2018-04-08T12:20:24.766Z,6.10
2018-04-08T12:22:52.990Z,6.07
2018-04-08T12:25:21.217Z,5.30
2018-04-08T12:27:49.439Z,5.67
2018-04-08T12:30:18.277Z,5.57
2018-04-08T12:32:47.329Z,6.33
2018-04-08T12:35:15.879Z,4.83
2018-04-08T12:37:44.731Z,5.23
2018-04-08T12:40:12.953Z,6.03
2018-04-08T12:42:41.172Z,7.00
2018-04-08T12:45:09.425Z,6.13
2018-04-08T12:47:37.630Z,5.83
2018-04-08T12:50:05.837Z,5.53
2018-04-08T12:52:34.482Z,5.63
2018-04-08T12:55:02.678Z,4.83
2018-04-08T12:57:31.659Z,5.30
2018-04-08T12:59:59.906Z,5.30
2018-04-08T13:02:28.132Z,4.93
2018-04-08T13:04:57.228Z,6.23
2018-04-08T13:07:26.420Z,5.70
2018-04-08T13:09:56.851Z,6.00
2018-04-08T13:12:25.845Z,6.00
2018-04-08T13:14:55.180Z,6.27
2018-04-08T13:17:23.476Z,5.30
2018-04-08T13:19:51.677Z,5.67
2018-04-08T13:22:20.383Z,5.20
2018-04-08T13:24:49.817Z,5.70
2018-04-08T13:27:19.211Z,6.13
2018-04-08T13:29:47.766Z,5.60
2018-04-08T13:32:16.822Z,4.80
2018-04-08T13:34:45.353Z,5.30
2018-04-08T13:37:14.337Z,4.90
2018-04-08T13:39:42.547Z,5.90
2018-04-08T13:42:10.774Z,6.43
2018-04-08T13:44:39.008Z,4.80
2018-04-08T13:47:07.332Z,5.20
2018-04-08T13:49:35.795Z,4.87
2018-04-08T13:52:04.842Z,5.17
2018-04-08T13:54:33.120Z,4.33
2018-04-08T13:57:01.298Z,4.90
2018-04-08T13:59:29.541Z,5.00
2018-04-08T14:01:57.764Z,4.50
2018-04-08T14:04:25.965Z,4.30
2018-04-08T14:06:55.942Z,4.73
2018-04-08T14:09:24.614Z,5.30
2018-04-08T14:11:52.809Z,4.43
2018-04-08T14:14:21.058Z,4.80
2018-04-08T14:16:49.644Z,5.10
2018-04-08T14:19:18.010Z,4.30
2018-04-08T14:21:46.234Z,4.73
2018-04-08T14:24:17.562Z,4.60
2018-04-08T14:26:47.052Z,4.60
2018-04-08T14:29:22.064Z,5.00
2018-04-08T14:31:50.230Z,4.17
2018-04-08T14:34:19.056Z,4.40
2018-04-08T14:36:48.227Z,4.23
2018-04-08T14:39:17.199Z,4.73
2018-04-08T14:41:45.406Z,4.90
2018-04-08T14:44:13.626Z,4.63
2018-04-08T14:46:41.855Z,4.10
2018-04-08T14:49:10.038Z,4.10
2018-04-08T14:51:38.280Z,4.20
2018-04-08T14:54:06.924Z,4.13
2018-04-08T14:56:35.122Z,4.67
2018-04-08T14:59:03.342Z,4.20
2018-04-08T15:01:31.569Z,3.90
2018-04-08T15:04:07.594Z,4.50
2018-04-08T15:06:35.805Z,4.00
2018-04-08T15:09:05.723Z,3.97
2018-04-08T15:11:34.196Z,4.33
2018-04-08T15:14:02.402Z,4.00
2018-04-08T15:16:31.147Z,3.53
2018-04-08T15:19:00.277Z,4.00
2018-04-08T15:21:28.493Z,4.33
2018-04-08T15:23:57.338Z,3.97
2018-04-08T15:26:26.083Z,3.80
2018-04-08T15:28:54.290Z,3.80
2018-04-08T15:31:22.943Z,4.40
2018-04-08T15:33:51.914Z,4.27
2018-04-08T15:36:20.374Z,4.63
2018-04-08T15:38:49.741Z,3.77
2018-04-08T15:41:19.224Z,4.40
2018-04-08T15:43:47.422Z,4.03
2018-04-08T15:46:15.747Z,4.20
2018-04-08T15:48:43.972Z,4.10
2018-04-08T15:51:12.948Z,4.47
2018-04-08T15:53:42.153Z,4.90
2018-04-08T15:56:10.356Z,3.90
2018-04-08T15:58:38.567Z,4.10
2018-04-08T16:01:07.170Z,3.80
2018-04-08T16:03:35.413Z,3.77
2018-04-08T16:06:03.622Z,4.37
2018-04-08T16:08:32.434Z,4.27
2018-04-08T16:11:00.630Z,3.70
2018-04-08T16:13:28.838Z,3.87
2018-04-08T16:15:57.914Z,4.30
2018-04-08T16:18:26.652Z,4.67
2018-04-08T16:20:55.241Z,4.07
2018-04-08T16:23:23.565Z,4.17
2018-04-08T16:25:52.222Z,4.20
2018-04-08T16:28:21.193Z,4.43
2018-04-08T16:30:50.438Z,4.60
2018-04-08T16:33:18.906Z,4.87
2018-04-08T16:35:47.379Z,5.07
2018-04-08T16:38:15.578Z,5.40
2018-04-08T16:40:43.798Z,5.70
2018-04-08T16:43:12.014Z,5.80
2018-04-08T16:45:41.000Z,5.13
2018-04-08T16:48:09.357Z,5.37
2018-04-08T16:50:37.621Z,5.00
2018-04-08T16:53:06.135Z,5.00
2018-04-08T16:55:35.456Z,5.00
2018-04-08T16:58:04.426Z,5.63
2018-04-08T17:00:33.004Z,5.30
2018-04-08T17:03:01.483Z,6.10
2018-04-08T17:05:29.883Z,5.70
2018-04-08T17:07:58.488Z,5.17
2018-04-08T17:10:27.162Z,6.90
2018-04-08T17:12:56.429Z,6.27
2018-04-08T17:15:25.029Z,5.10
2018-04-08T17:17:54.410Z,6.27
2018-04-08T17:20:22.625Z,6.30
2018-04-08T17:22:50.838Z,5.43
2018-04-08T17:25:19.802Z,6.20
2018-04-08T17:27:48.020Z,6.50
2018-04-08T17:30:16.290Z,6.20
2018-04-08T17:32:46.094Z,6.00
2018-04-08T17:35:14.727Z,5.67
2018-04-08T17:37:42.942Z,5.70
2018-04-08T17:40:11.161Z,6.43
2018-04-08T17:42:39.386Z,5.77
2018-04-08T17:45:07.846Z,5.67
2018-04-08T17:47:37.352Z,5.47
2018-04-08T17:50:12.601Z,6.13
2018-04-08T17:52:41.678Z,5.40
2018-04-08T17:55:09.893Z,5.53
2018-04-08T17:57:38.174Z,5.87
2018-04-08T18:00:06.389Z,5.90
2018-04-08T18:02:34.868Z,5.87
2018-04-08T18:05:03.150Z,5.40
2018-04-08T18:07:31.788Z,5.67
2018-04-08T18:10:00.630Z,5.40
2018-04-08T18:12:28.832Z,5.53
2018-04-08T18:14:57.872Z,5.20
2018-04-08T18:17:26.170Z,5.87
2018-04-08T18:19:54.417Z,6.63
2018-04-08T18:22:22.878Z,5.63
2018-04-08T18:24:51.257Z,5.77
2018-04-08T18:27:19.468Z,6.10
2018-04-08T18:29:48.322Z,5.70
2018-04-08T18:32:17.751Z,5.90
2018-04-08T18:34:46.311Z,7.60
2018-04-08T18:37:15.334Z,6.20
2018-04-08T18:39:43.542Z,5.77
2018-04-08T18:42:11.761Z,5.80
2018-04-08T18:44:40.425Z,6.50
2018-04-08T18:47:11.977Z,6.83
2018-04-08T18:49:40.950Z,6.40
2018-04-08T18:52:09.540Z,7.03
2018-04-08T18:54:38.230Z,5.97
2018-04-08T18:57:06.444Z,6.97
2018-04-08T18:59:34.638Z,5.70
2018-04-08T19:02:04.460Z,6.23
2018-04-08T19:04:32.671Z,7.30
2018-04-08T19:07:01.174Z,6.83
2018-04-08T19:09:30.225Z,5.93
2018-04-08T19:11:58.451Z,5.90
2018-04-08T19:14:27.532Z,6.73
2018-04-08T19:16:55.851Z,6.40
2018-04-08T19:19:24.391Z,6.70
2018-04-08T19:21:53.502Z,6.60
2018-04-08T19:24:22.483Z,7.03
2018-04-08T19:26:51.040Z,6.40
2018-04-08T19:29:19.758Z,6.43
2018-04-08T19:31:48.638Z,6.30
2018-04-08T19:34:17.141Z,6.70
2018-04-08T19:36:46.244Z,6.57
2018-04-08T19:39:15.191Z,5.47
2018-04-08T19:41:43.482Z,6.33
2018-04-08T19:44:11.707Z,6.33
2018-04-08T19:46:40.144Z,6.40
2018-04-08T19:49:08.854Z,6.50
2018-04-08T19:51:37.834Z,6.10
2018-04-08T19:54:06.739Z,6.20
2018-04-08T19:56:34.949Z,6.30
2018-04-08T19:59:03.155Z,5.43
2018-04-08T20:01:31.865Z,6.13
2018-04-08T20:04:00.038Z,6.10
2018-04-08T20:06:30.003Z,6.27
2018-04-08T20:08:58.624Z,6.50
2018-04-08T20:11:26.934Z,6.60
2018-04-08T20:13:55.402Z,7.17
2018-04-08T20:16:23.763Z,7.23
2018-04-08T20:18:52.871Z,6.20
2018-04-08T20:21:21.175Z,6.07
2018-04-08T20:23:49.375Z,6.10
2018-04-08T20:26:18.450Z,7.40
2018-04-08T20:28:46.657Z,6.30
2018-04-08T20:31:15.395Z,6.63
2018-04-08T20:33:44.703Z,6.23
2018-04-08T20:36:20.453Z,6.33
2018-04-08T20:38:48.737Z,6.80
2018-04-08T20:41:16.967Z,6.93
2018-04-08T20:43:45.176Z,7.00
2018-04-08T20:46:14.147Z,6.60
2018-04-08T20:48:43.857Z,6.30
2018-04-08T20:51:12.084Z,6.63
2018-04-08T20:53:40.930Z,7.63
2018-04-08T20:56:09.132Z,6.07
2018-04-08T20:58:37.335Z,6.77
2018-04-08T21:01:06.613Z,6.13
2018-04-08T21:03:35.586Z,7.20
2018-04-08T21:06:04.634Z,6.03
2018-04-08T21:08:33.270Z,6.40
2018-04-08T21:11:02.241Z,5.93
2018-04-08T21:13:30.655Z,6.53
2018-04-08T21:15:59.753Z,6.47
2018-04-08T21:18:28.122Z,7.70
2018-04-08T21:20:57.802Z,9.83
2018-04-08T21:23:26.833Z,8.23
2018-04-08T21:25:55.586Z,7.53
2018-04-08T21:28:23.792Z,6.83
2018-04-08T21:30:52.422Z,6.97
2018-04-08T21:33:21.266Z,8.30
2018-04-08T21:35:49.861Z,6.53
2018-04-08T21:38:18.971Z,6.10
2018-04-08T21:40:47.172Z,5.40
2018-04-08T21:43:15.386Z,7.30
2018-04-08T21:45:43.607Z,6.33
2018-04-08T21:48:12.374Z,6.60
2018-04-08T21:50:41.355Z,7.20
2018-04-08T21:53:10.135Z,6.33
2018-04-08T21:55:39.109Z,6.50
2018-04-08T21:58:07.914Z,7.20
2018-04-08T22:00:36.125Z,6.07
2018-04-08T22:03:04.875Z,6.53
2018-04-08T22:05:33.294Z,6.80
2018-04-08T22:08:01.754Z,6.90
2018-04-08T22:10:30.002Z,6.40
2018-04-08T22:12:58.187Z,7.07
2018-04-08T22:15:26.889Z,6.90
2018-04-08T22:17:56.095Z,7.33
2018-04-08T22:20:25.066Z,7.27
2018-04-08T22:22:53.304Z,7.77
2018-04-08T22:25:21.511Z,7.57
2018-04-08T22:27:50.116Z,8.27
2018-04-08T22:30:18.902Z,8.10
2018-04-08T22:32:49.248Z,8.03
2018-04-08T22:35:17.842Z,8.00
2018-04-08T22:37:46.798Z,6.73
2018-04-08T22:40:15.010Z,7.03
2018-04-08T22:42:43.230Z,6.97
2018-04-08T22:45:12.242Z,7.30
2018-04-08T22:47:40.453Z,7.17
2018-04-08T22:50:09.435Z,7.37
2018-04-08T22:52:38.099Z,6.60
2018-04-08T22:55:06.328Z,7.10
2018-04-08T22:57:34.530Z,7.40
2018-04-08T23:00:02.760Z,7.90
2018-04-08T23:02:32.233Z,7.47
2018-04-08T23:05:00.866Z,8.00
2018-04-08T23:07:30.183Z,9.10
2018-04-08T23:09:59.310Z,7.57
2018-04-08T23:12:27.551Z,7.37
2018-04-08T23:14:55.747Z,7.00
2018-04-08T23:17:24.477Z,7.63
2018-04-08T23:19:53.863Z,7.90
2018-04-08T23:22:26.590Z,8.60
2018-04-08T23:24:54.811Z,7.40
2018-04-08T23:27:23.012Z,7.57
2018-04-08T23:29:51.802Z,9.40
2018-04-08T23:32:20.002Z,7.20
2018-04-08T23:34:49.593Z,7.73
2018-04-08T23:37:19.386Z,8.60
2018-04-08T23:39:47.598Z,8.73
2018-04-08T23:42:15.826Z,8.30
2018-04-08T23:44:44.042Z,8.00
2018-04-08T23:47:12.255Z,7.33
2018-04-08T23:49:40.503Z,8.33
2018-04-08T23:52:10.105Z,8.23
2018-04-08T23:54:38.346Z,7.40
2018-04-08T23:57:06.559Z,7.80
2018-04-08T23:59:34.812Z,8.43
